sensor_id;sensor_type;location;lat;lon;timestamp;temperature;humidity
20594;DHT22;10455;48.732;10.266;2024-03-07T00:03:46;2.60;99.90
20594;DHT22;10455;48.732;10.266;2024-03-07T00:08:47;2.50;99.90
20594;DHT22;10455;48.732;10.266;2024-03-07T00:13:50;2.50;99.90
20594;DHT22;10455;48.732;10.266;2024-03-07T00:18:53;2.40;99.90
20594;DHT22;10455;48.732;10.266;2024-03-07T00:23:56;2.30;99.90
20594;DHT22;10455;48.732;10.266;2024-03-07T00:28:58;2.20;99.90
20594;DHT22;10455;48.732;10.266;2024-03-07T00:34:01;2.00;99.90
20594;DHT22;10455;48.732;10.266;2024-03-07T00:39:03;2.00;99.90
20594;DHT22;10455;48.732;10.266;2024-03-07T00:44:05;2.00;99.90
20594;DHT22;10455;48.732;10.266;2024-03-07T00:49:10;2.20;99.90
20594;DHT22;10455;48.732;10.266;2024-03-07T00:54:12;2.10;99.90
20594;DHT22;10455;48.732;10.266;2024-03-07T00:59:14;1.90;99.90
20594;DHT22;10455;48.732;10.266;2024-03-07T01:04:17;1.90;99.90
20594;DHT22;10455;48.732;10.266;2024-03-07T01:09:19;1.60;99.90
20594;DHT22;10455;48.732;10.266;2024-03-07T01:14:23;1.50;99.90
20594;DHT22;10455;48.732;10.266;2024-03-07T01:19:26;1.30;99.90
20594;DHT22;10455;48.732;10.266;2024-03-07T01:24:28;1.30;99.90
20594;DHT22;10455;48.732;10.266;2024-03-07T01:29:30;1.40;99.90
20594;DHT22;10455;48.732;10.266;2024-03-07T01:34:33;1.30;99.90
20594;DHT22;10455;48.732;10.266;2024-03-07T01:39:35;1.10;99.90
20594;DHT22;10455;48.732;10.266;2024-03-07T01:44:37;1.00;99.90
20594;DHT22;10455;48.732;10.266;2024-03-07T01:49:42;0.90;99.90
20594;DHT22;10455;48.732;10.266;2024-03-07T01:54:44;0.90;99.90
20594;DHT22;10455;48.732;10.266;2024-03-07T01:59:47;1.10;99.90
20594;DHT22;10455;48.732;10.266;2024-03-07T02:04:50;0.90;99.90
20594;DHT22;10455;48.732;10.266;2024-03-07T02:09:59;0.70;99.90
20594;DHT22;10455;48.732;10.266;2024-03-07T02:15:01;0.60;99.90
20594;DHT22;10455;48.732;10.266;2024-03-07T02:20:06;0.70;99.90
20594;DHT22;10455;48.732;10.266;2024-03-07T02:25:10;0.70;99.90
20594;DHT22;10455;48.732;10.266;2024-03-07T02:30:12;0.50;99.90
20594;DHT22;10455;48.732;10.266;2024-03-07T02:35:15;0.50;99.90
20594;DHT22;10455;48.732;10.266;2024-03-07T02:40:18;0.40;99.90
20594;DHT22;10455;48.732;10.266;2024-03-07T02:45:20;0.20;99.90
20594;DHT22;10455;48.732;10.266;2024-03-07T02:50:22;0.20;99.90
20594;DHT22;10455;48.732;10.266;2024-03-07T02:55:26;0.30;99.90
20594;DHT22;10455;48.732;10.266;2024-03-07T03:00:28;0.20;99.90
20594;DHT22;10455;48.732;10.266;2024-03-07T03:05:30;0.20;99.90
20594;DHT22;10455;48.732;10.266;2024-03-07T03:10:33;0.00;99.90
20594;DHT22;10455;48.732;10.266;2024-03-07T03:15:35;0.00;99.90
20594;DHT22;10455;48.732;10.266;2024-03-07T03:20:38;0.00;99.90
20594;DHT22;10455;48.732;10.266;2024-03-07T03:25:42;0.00;99.90
20594;DHT22;10455;48.732;10.266;2024-03-07T03:30:44;0.00;99.90
20594;DHT22;10455;48.732;10.266;2024-03-07T03:35:46;0.00;99.90
20594;DHT22;10455;48.732;10.266;2024-03-07T03:40:49;0.00;99.90
20594;DHT22;10455;48.732;10.266;2024-03-07T03:45:51;-0.10;99.90
20594;DHT22;10455;48.732;10.266;2024-03-07T03:50:53;-0.30;99.90
20594;DHT22;10455;48.732;10.266;2024-03-07T03:55:57;-0.10;99.90
20594;DHT22;10455;48.732;10.266;2024-03-07T04:00:59;0.10;99.90
20594;DHT22;10455;48.732;10.266;2024-03-07T04:06:01;0.00;99.90
20594;DHT22;10455;48.732;10.266;2024-03-07T04:11:04;-0.10;99.90
20594;DHT22;10455;48.732;10.266;2024-03-07T04:16:10;0.00;99.90
20594;DHT22;10455;48.732;10.266;2024-03-07T04:21:11;0.10;99.90
20594;DHT22;10455;48.732;10.266;2024-03-07T04:26:15;0.20;99.90
20594;DHT22;10455;48.732;10.266;2024-03-07T04:31:17;0.30;99.90
20594;DHT22;10455;48.732;10.266;2024-03-07T04:36:19;0.40;99.90
20594;DHT22;10455;48.732;10.266;2024-03-07T04:41:22;0.70;99.90
20594;DHT22;10455;48.732;10.266;2024-03-07T04:46:24;0.90;99.90
20594;DHT22;10455;48.732;10.266;2024-03-07T04:51:26;0.80;99.90
20594;DHT22;10455;48.732;10.266;2024-03-07T04:56:29;1.00;99.90
20594;DHT22;10455;48.732;10.266;2024-03-07T05:01:31;1.30;99.90
20594;DHT22;10455;48.732;10.266;2024-03-07T05:06:33;1.50;99.90
20594;DHT22;10455;48.732;10.266;2024-03-07T05:11:37;1.40;99.90
20594;DHT22;10455;48.732;10.266;2024-03-07T05:16:38;1.50;99.90
20594;DHT22;10455;48.732;10.266;2024-03-07T05:21:40;1.30;99.90
20594;DHT22;10455;48.732;10.266;2024-03-07T05:26:44;1.30;99.90
20594;DHT22;10455;48.732;10.266;2024-03-07T05:31:46;1.50;99.90
20594;DHT22;10455;48.732;10.266;2024-03-07T05:36:48;1.70;99.90
20594;DHT22;10455;48.732;10.266;2024-03-07T05:41:52;1.70;99.90
20594;DHT22;10455;48.732;10.266;2024-03-07T05:46:53;1.60;99.90
20594;DHT22;10455;48.732;10.266;2024-03-07T05:51:55;1.70;99.90
20594;DHT22;10455;48.732;10.266;2024-03-07T05:57:00;1.60;99.90
20594;DHT22;10455;48.732;10.266;2024-03-07T06:02:02;1.80;99.90
20594;DHT22;10455;48.732;10.266;2024-03-07T06:07:05;1.70;99.90
20594;DHT22;10455;48.732;10.266;2024-03-07T06:12:08;1.80;99.90
20594;DHT22;10455;48.732;10.266;2024-03-07T06:17:10;1.90;99.90
20594;DHT22;10455;48.732;10.266;2024-03-07T06:22:12;2.00;99.90
20594;DHT22;10455;48.732;10.266;2024-03-07T06:27:15;2.10;99.90
20594;DHT22;10455;48.732;10.266;2024-03-07T06:32:27;2.20;99.90
20594;DHT22;10455;48.732;10.266;2024-03-07T06:37:29;1.90;99.90
20594;DHT22;10455;48.732;10.266;2024-03-07T06:42:32;1.70;99.90
20594;DHT22;10455;48.732;10.266;2024-03-07T06:47:34;1.30;99.90
20594;DHT22;10455;48.732;10.266;2024-03-07T06:52:36;1.70;99.90
20594;DHT22;10455;48.732;10.266;2024-03-07T06:57:39;2.20;99.90
20594;DHT22;10455;48.732;10.266;2024-03-07T07:02:41;2.60;99.90
20594;DHT22;10455;48.732;10.266;2024-03-07T07:07:43;2.50;99.90
20594;DHT22;10455;48.732;10.266;2024-03-07T07:12:47;2.10;99.90
20594;DHT22;10455;48.732;10.266;2024-03-07T07:17:50;2.00;99.90
20594;DHT22;10455;48.732;10.266;2024-03-07T07:22:53;2.30;99.90
20594;DHT22;10455;48.732;10.266;2024-03-07T07:27:56;2.70;99.90
20594;DHT22;10455;48.732;10.266;2024-03-07T07:32:58;3.20;99.90
20594;DHT22;10455;48.732;10.266;2024-03-07T07:38:00;3.20;99.90
20594;DHT22;10455;48.732;10.266;2024-03-07T07:43:03;2.90;99.90
20594;DHT22;10455;48.732;10.266;2024-03-07T07:48:06;3.00;99.90
20594;DHT22;10455;48.732;10.266;2024-03-07T07:53:08;3.60;99.90
20594;DHT22;10455;48.732;10.266;2024-03-07T07:58:12;4.40;99.90
20594;DHT22;10455;48.732;10.266;2024-03-07T08:03:14;5.10;99.90
20594;DHT22;10455;48.732;10.266;2024-03-07T08:08:18;6.20;99.90
20594;DHT22;10455;48.732;10.266;2024-03-07T08:13:22;7.10;99.90
20594;DHT22;10455;48.732;10.266;2024-03-07T08:18:25;9.00;99.90
20594;DHT22;10455;48.732;10.266;2024-03-07T08:23:27;7.90;99.90
20594;DHT22;10455;48.732;10.266;2024-03-07T08:28:32;6.00;99.90
20594;DHT22;10455;48.732;10.266;2024-03-07T08:33:34;6.90;99.90
20594;DHT22;10455;48.732;10.266;2024-03-07T08:38:36;7.10;99.90
20594;DHT22;10455;48.732;10.266;2024-03-07T08:43:40;6.10;99.90
20594;DHT22;10455;48.732;10.266;2024-03-07T08:48:42;5.40;99.90
20594;DHT22;10455;48.732;10.266;2024-03-07T08:53:44;6.20;99.90
20594;DHT22;10455;48.732;10.266;2024-03-07T08:58:47;7.80;99.90
20594;DHT22;10455;48.732;10.266;2024-03-07T09:03:49;8.50;99.90
20594;DHT22;10455;48.732;10.266;2024-03-07T09:08:51;8.20;99.90
20594;DHT22;10455;48.732;10.266;2024-03-07T09:13:54;8.00;99.90
20594;DHT22;10455;48.732;10.266;2024-03-07T09:18:56;6.60;99.90
20594;DHT22;10455;48.732;10.266;2024-03-07T09:23:58;6.90;99.90
20594;DHT22;10455;48.732;10.266;2024-03-07T09:29:02;8.50;99.90
20594;DHT22;10455;48.732;10.266;2024-03-07T09:34:06;8.10;99.90
20594;DHT22;10455;48.732;10.266;2024-03-07T09:39:09;6.40;99.90
20594;DHT22;10455;48.732;10.266;2024-03-07T09:44:15;5.50;99.90
20594;DHT22;10455;48.732;10.266;2024-03-07T09:49:22;6.40;99.90
20594;DHT22;10455;48.732;10.266;2024-03-07T09:54:25;6.50;99.90
20594;DHT22;10455;48.732;10.266;2024-03-07T09:59:32;6.90;99.90
20594;DHT22;10455;48.732;10.266;2024-03-07T10:04:40;6.30;99.90
20594;DHT22;10455;48.732;10.266;2024-03-07T10:09:45;6.50;99.90
20594;DHT22;10455;48.732;10.266;2024-03-07T10:14:53;6.90;99.90
20594;DHT22;10455;48.732;10.266;2024-03-07T10:19:58;6.60;99.90
20594;DHT22;10455;48.732;10.266;2024-03-07T10:25:01;6.30;99.90
20594;DHT22;10455;48.732;10.266;2024-03-07T10:30:06;6.20;99.90
20594;DHT22;10455;48.732;10.266;2024-03-07T10:35:09;6.10;99.90
20594;DHT22;10455;48.732;10.266;2024-03-07T10:40:12;5.80;99.90
20594;DHT22;10455;48.732;10.266;2024-03-07T10:45:19;6.30;99.90
20594;DHT22;10455;48.732;10.266;2024-03-07T10:50:30;6.50;99.90
20594;DHT22;10455;48.732;10.266;2024-03-07T10:55:44;6.70;99.90
20594;DHT22;10455;48.732;10.266;2024-03-07T11:00:53;7.00;99.90
20594;DHT22;10455;48.732;10.266;2024-03-07T11:05:57;7.10;99.90
20594;DHT22;10455;48.732;10.266;2024-03-07T11:10:59;7.50;99.90
20594;DHT22;10455;48.732;10.266;2024-03-07T11:16:05;6.80;99.90
20594;DHT22;10455;48.732;10.266;2024-03-07T11:21:07;6.80;99.90
20594;DHT22;10455;48.732;10.266;2024-03-07T11:26:29;6.40;99.90
20594;DHT22;10455;48.732;10.266;2024-03-07T11:31:32;6.70;99.90
20594;DHT22;10455;48.732;10.266;2024-03-07T11:36:44;7.00;99.90
20594;DHT22;10455;48.732;10.266;2024-03-07T11:41:46;6.70;99.90
20594;DHT22;10455;48.732;10.266;2024-03-07T11:46:50;6.90;99.90
20594;DHT22;10455;48.732;10.266;2024-03-07T11:51:52;7.30;99.90
20594;DHT22;10455;48.732;10.266;2024-03-07T11:56:54;7.30;99.90
20594;DHT22;10455;48.732;10.266;2024-03-07T12:01:58;7.50;99.90
20594;DHT22;10455;48.732;10.266;2024-03-07T12:07:01;7.30;99.90
20594;DHT22;10455;48.732;10.266;2024-03-07T12:12:07;7.60;99.90
20594;DHT22;10455;48.732;10.266;2024-03-07T12:17:11;7.20;99.90
20594;DHT22;10455;48.732;10.266;2024-03-07T12:22:13;7.20;99.90
20594;DHT22;10455;48.732;10.266;2024-03-07T12:27:23;6.50;99.90
20594;DHT22;10455;48.732;10.266;2024-03-07T12:32:26;6.60;99.90
20594;DHT22;10455;48.732;10.266;2024-03-07T12:37:28;6.60;99.90
20594;DHT22;10455;48.732;10.266;2024-03-07T12:42:30;6.60;99.90
20594;DHT22;10455;48.732;10.266;2024-03-07T12:47:35;7.30;99.90
20594;DHT22;10455;48.732;10.266;2024-03-07T12:52:37;7.50;99.90
20594;DHT22;10455;48.732;10.266;2024-03-07T12:57:40;7.40;99.90
20594;DHT22;10455;48.732;10.266;2024-03-07T13:02:44;7.10;99.90
20594;DHT22;10455;48.732;10.266;2024-03-07T13:07:47;7.60;99.90
20594;DHT22;10455;48.732;10.266;2024-03-07T13:12:49;7.90;99.90
20594;DHT22;10455;48.732;10.266;2024-03-07T13:17:53;8.90;99.90
20594;DHT22;10455;48.732;10.266;2024-03-07T13:22:56;8.80;99.90
20594;DHT22;10455;48.732;10.266;2024-03-07T13:28:03;8.80;99.90
20594;DHT22;10455;48.732;10.266;2024-03-07T13:33:10;7.70;99.90
20594;DHT22;10455;48.732;10.266;2024-03-07T13:38:12;7.30;99.90
20594;DHT22;10455;48.732;10.266;2024-03-07T13:43:17;7.10;99.90
20594;DHT22;10455;48.732;10.266;2024-03-07T13:48:20;7.10;99.90
20594;DHT22;10455;48.732;10.266;2024-03-07T13:53:22;7.00;99.90
20594;DHT22;10455;48.732;10.266;2024-03-07T13:58:50;7.50;99.90
20594;DHT22;10455;48.732;10.266;2024-03-07T14:09:56;7.30;99.90
20594;DHT22;10455;48.732;10.266;2024-03-07T14:15:38;7.00;99.90
20594;DHT22;10455;48.732;10.266;2024-03-07T14:21:19;6.80;99.90
20594;DHT22;10455;48.732;10.266;2024-03-07T14:26:56;6.90;99.90
20594;DHT22;10455;48.732;10.266;2024-03-07T14:32:03;6.60;99.90
20594;DHT22;10455;48.732;10.266;2024-03-07T14:37:19;6.70;99.90
20594;DHT22;10455;48.732;10.266;2024-03-07T14:42:23;6.80;99.90
20594;DHT22;10455;48.732;10.266;2024-03-07T14:47:25;7.20;99.90
20594;DHT22;10455;48.732;10.266;2024-03-07T14:52:30;7.10;99.90
20594;DHT22;10455;48.732;10.266;2024-03-07T14:57:32;6.70;99.90
20594;DHT22;10455;48.732;10.266;2024-03-07T15:02:34;6.80;99.90
20594;DHT22;10455;48.732;10.266;2024-03-07T15:07:39;7.00;99.90
20594;DHT22;10455;48.732;10.266;2024-03-07T15:12:41;6.60;99.90
20594;DHT22;10455;48.732;10.266;2024-03-07T15:17:43;6.50;99.90
20594;DHT22;10455;48.732;10.266;2024-03-07T15:22:47;6.20;99.90
20594;DHT22;10455;48.732;10.266;2024-03-07T15:27:49;6.50;99.90
20594;DHT22;10455;48.732;10.266;2024-03-07T15:32:52;6.40;99.90
20594;DHT22;10455;48.732;10.266;2024-03-07T15:37:55;6.40;99.90
20594;DHT22;10455;48.732;10.266;2024-03-07T15:42:58;6.30;99.90
20594;DHT22;10455;48.732;10.266;2024-03-07T15:48:04;6.10;99.90
20594;DHT22;10455;48.732;10.266;2024-03-07T15:53:12;5.80;99.90
20594;DHT22;10455;48.732;10.266;2024-03-07T15:58:15;5.80;99.90
20594;DHT22;10455;48.732;10.266;2024-03-07T16:03:18;5.80;99.90
20594;DHT22;10455;48.732;10.266;2024-03-07T16:08:25;5.70;99.90
20594;DHT22;10455;48.732;10.266;2024-03-07T16:13:26;5.80;99.90
20594;DHT22;10455;48.732;10.266;2024-03-07T16:18:28;5.90;99.90
20594;DHT22;10455;48.732;10.266;2024-03-07T16:23:31;5.70;99.90
20594;DHT22;10455;48.732;10.266;2024-03-07T16:28:33;5.60;99.90
20594;DHT22;10455;48.732;10.266;2024-03-07T16:33:35;5.70;99.90
20594;DHT22;10455;48.732;10.266;2024-03-07T16:38:41;5.50;99.90
20594;DHT22;10455;48.732;10.266;2024-03-07T16:43:43;5.40;99.90
20594;DHT22;10455;48.732;10.266;2024-03-07T16:48:45;5.10;99.90
20594;DHT22;10455;48.732;10.266;2024-03-07T16:53:48;5.10;99.90
20594;DHT22;10455;48.732;10.266;2024-03-07T16:58:50;5.30;99.90
20594;DHT22;10455;48.732;10.266;2024-03-07T17:03:52;5.40;99.90
20594;DHT22;10455;48.732;10.266;2024-03-07T17:08:55;5.20;99.90
20594;DHT22;10455;48.732;10.266;2024-03-07T17:13:57;5.20;99.90
20594;DHT22;10455;48.732;10.266;2024-03-07T17:18:59;5.20;99.90
20594;DHT22;10455;48.732;10.266;2024-03-07T17:24:04;5.10;99.90
20594;DHT22;10455;48.732;10.266;2024-03-07T17:29:06;5.00;99.90
20594;DHT22;10455;48.732;10.266;2024-03-07T17:34:09;5.30;99.90
20594;DHT22;10455;48.732;10.266;2024-03-07T17:39:12;5.20;99.90
20594;DHT22;10455;48.732;10.266;2024-03-07T17:44:14;5.00;99.90
20594;DHT22;10455;48.732;10.266;2024-03-07T17:49:17;4.70;99.90
20594;DHT22;10455;48.732;10.266;2024-03-07T17:54:25;4.70;99.90
20594;DHT22;10455;48.732;10.266;2024-03-07T17:59:31;4.70;99.90
20594;DHT22;10455;48.732;10.266;2024-03-07T18:04:33;4.80;99.90
20594;DHT22;10455;48.732;10.266;2024-03-07T18:09:37;4.90;99.90
20594;DHT22;10455;48.732;10.266;2024-03-07T18:14:40;4.90;99.90
20594;DHT22;10455;48.732;10.266;2024-03-07T18:19:43;4.90;99.90
20594;DHT22;10455;48.732;10.266;2024-03-07T18:24:46;4.80;99.90
20594;DHT22;10455;48.732;10.266;2024-03-07T18:29:48;4.70;99.90
20594;DHT22;10455;48.732;10.266;2024-03-07T18:34:50;4.50;99.90
20594;DHT22;10455;48.732;10.266;2024-03-07T18:39:53;4.50;99.90
20594;DHT22;10455;48.732;10.266;2024-03-07T18:44:56;4.40;99.90
20594;DHT22;10455;48.732;10.266;2024-03-07T18:49:58;4.60;99.90
20594;DHT22;10455;48.732;10.266;2024-03-07T18:55:01;4.50;99.90
20594;DHT22;10455;48.732;10.266;2024-03-07T19:00:18;4.20;99.90
20594;DHT22;10455;48.732;10.266;2024-03-07T19:05:32;3.80;99.90
20594;DHT22;10455;48.732;10.266;2024-03-07T19:10:36;3.70;99.90
20594;DHT22;10455;48.732;10.266;2024-03-07T19:15:37;3.50;99.90
20594;DHT22;10455;48.732;10.266;2024-03-07T19:20:40;3.20;99.90
20594;DHT22;10455;48.732;10.266;2024-03-07T19:25:44;3.00;99.90
20594;DHT22;10455;48.732;10.266;2024-03-07T19:30:49;2.90;99.90
20594;DHT22;10455;48.732;10.266;2024-03-07T19:35:52;2.70;99.90
20594;DHT22;10455;48.732;10.266;2024-03-07T19:40:57;2.60;99.90
20594;DHT22;10455;48.732;10.266;2024-03-07T19:45:59;2.50;99.90
20594;DHT22;10455;48.732;10.266;2024-03-07T19:51:01;2.50;99.90
20594;DHT22;10455;48.732;10.266;2024-03-07T19:56:18;2.40;99.90
20594;DHT22;10455;48.732;10.266;2024-03-07T20:01:21;2.40;99.90
20594;DHT22;10455;48.732;10.266;2024-03-07T20:06:24;2.40;99.90
20594;DHT22;10455;48.732;10.266;2024-03-07T20:11:27;2.60;99.90
20594;DHT22;10455;48.732;10.266;2024-03-07T20:16:36;2.50;99.90
20594;DHT22;10455;48.732;10.266;2024-03-07T20:21:38;2.40;99.90
20594;DHT22;10455;48.732;10.266;2024-03-07T20:26:42;2.40;99.90
20594;DHT22;10455;48.732;10.266;2024-03-07T20:31:48;2.20;99.90
20594;DHT22;10455;48.732;10.266;2024-03-07T20:36:50;2.10;99.90
20594;DHT22;10455;48.732;10.266;2024-03-07T20:41:53;1.80;99.90
20594;DHT22;10455;48.732;10.266;2024-03-07T20:46:55;1.60;99.90
20594;DHT22;10455;48.732;10.266;2024-03-07T20:51:57;1.30;99.90
20594;DHT22;10455;48.732;10.266;2024-03-07T20:57:00;1.30;99.90
20594;DHT22;10455;48.732;10.266;2024-03-07T21:02:02;1.20;99.90
20594;DHT22;10455;48.732;10.266;2024-03-07T21:07:04;1.20;99.90
20594;DHT22;10455;48.732;10.266;2024-03-07T21:12:09;1.40;99.90
20594;DHT22;10455;48.732;10.266;2024-03-07T21:17:12;1.30;99.90
20594;DHT22;10455;48.732;10.266;2024-03-07T21:22:14;1.30;99.90
20594;DHT22;10455;48.732;10.266;2024-03-07T21:27:18;1.10;99.90
20594;DHT22;10455;48.732;10.266;2024-03-07T21:32:20;1.10;99.90
20594;DHT22;10455;48.732;10.266;2024-03-07T21:37:23;1.00;99.90
20594;DHT22;10455;48.732;10.266;2024-03-07T21:42:26;1.00;99.90
20594;DHT22;10455;48.732;10.266;2024-03-07T21:47:28;1.10;99.90
20594;DHT22;10455;48.732;10.266;2024-03-07T21:52:30;0.90;99.90
20594;DHT22;10455;48.732;10.266;2024-03-07T21:57:35;0.80;99.90
20594;DHT22;10455;48.732;10.266;2024-03-07T22:02:36;0.80;99.90
20594;DHT22;10455;48.732;10.266;2024-03-07T22:07:39;0.90;99.90
20594;DHT22;10455;48.732;10.266;2024-03-07T22:12:44;0.90;99.90
20594;DHT22;10455;48.732;10.266;2024-03-07T22:17:46;0.80;99.90
20594;DHT22;10455;48.732;10.266;2024-03-07T22:22:48;0.80;99.90
20594;DHT22;10455;48.732;10.266;2024-03-07T22:27:52;0.90;99.90
20594;DHT22;10455;48.732;10.266;2024-03-07T22:32:54;0.90;99.90
20594;DHT22;10455;48.732;10.266;2024-03-07T22:37:56;0.90;99.90
20594;DHT22;10455;48.732;10.266;2024-03-07T22:42:59;0.90;99.90
20594;DHT22;10455;48.732;10.266;2024-03-07T22:48:01;1.00;99.90
20594;DHT22;10455;48.732;10.266;2024-03-07T22:53:03;0.90;99.90
20594;DHT22;10455;48.732;10.266;2024-03-07T22:58:08;1.00;99.90
20594;DHT22;10455;48.732;10.266;2024-03-07T23:03:12;1.00;99.90
20594;DHT22;10455;48.732;10.266;2024-03-07T23:08:14;0.90;99.90
20594;DHT22;10455;48.732;10.266;2024-03-07T23:13:18;1.10;99.90
20594;DHT22;10455;48.732;10.266;2024-03-07T23:18:20;1.00;99.90
20594;DHT22;10455;48.732;10.266;2024-03-07T23:23:22;0.90;99.90
20594;DHT22;10455;48.732;10.266;2024-03-07T23:28:25;1.00;99.90
20594;DHT22;10455;48.732;10.266;2024-03-07T23:33:29;0.90;99.90
20594;DHT22;10455;48.732;10.266;2024-03-07T23:38:31;0.90;99.90
20594;DHT22;10455;48.732;10.266;2024-03-07T23:43:34;0.90;99.90
20594;DHT22;10455;48.732;10.266;2024-03-07T23:48:36;0.90;99.90
20594;DHT22;10455;48.732;10.266;2024-03-07T23:53:39;0.80;99.90
20594;DHT22;10455;48.732;10.266;2024-03-07T23:58:42;0.70;99.90
